createdAt,value
2019-05-19T00:01:22.843Z,31.00
2019-05-19T00:03:48.985Z,27.15
2019-05-19T00:06:15.098Z,33.33
2019-05-19T00:08:41.317Z,25.62
2019-05-19T00:11:07.421Z,30.00
2019-05-19T00:13:33.640Z,24.25
2019-05-19T00:15:59.711Z,33.88
2019-05-19T00:18:25.853Z,23.47
2019-05-19T00:20:52.179Z,44.13
2019-05-19T00:23:18.391Z,31.80
2019-05-19T00:25:44.498Z,44.88
2019-05-19T00:28:10.682Z,32.45
2019-05-19T00:30:36.802Z,27.98
2019-05-19T00:33:02.884Z,22.27
2019-05-19T00:35:29.004Z,38.78
2019-05-19T00:37:55.222Z,31.82
2019-05-19T00:40:21.422Z,44.60
2019-05-19T00:42:47.592Z,37.70
2019-05-19T00:45:13.925Z,27.02
2019-05-19T00:47:40.048Z,34.88
2019-05-19T00:50:06.457Z,25.17
2019-05-19T00:52:33.055Z,28.47
2019-05-19T00:54:59.232Z,22.02
2019-05-19T00:57:26.822Z,49.25
2019-05-19T00:59:53.429Z,33.63
2019-05-19T01:02:19.535Z,35.50
2019-05-19T01:04:45.619Z,41.20
2019-05-19T01:07:11.773Z,31.85
2019-05-19T01:09:38.224Z,37.60
2019-05-19T01:12:04.441Z,34.35
2019-05-19T01:14:30.554Z,46.28
2019-05-19T01:16:56.627Z,37.42
2019-05-19T01:19:22.736Z,41.50
2019-05-19T01:21:48.935Z,35.05
2019-05-19T01:24:15.042Z,43.23
2019-05-19T01:26:41.155Z,32.25
2019-05-19T01:29:07.348Z,30.72
2019-05-19T01:31:33.693Z,27.73
2019-05-19T01:33:59.896Z,41.33
2019-05-19T01:36:26.121Z,41.05
2019-05-19T01:38:52.288Z,32.50
2019-05-19T01:41:18.422Z,39.85
2019-05-19T01:43:51.197Z,44.67
2019-05-19T01:46:17.371Z,35.15
2019-05-19T01:48:43.469Z,37.42
2019-05-19T01:51:09.586Z,35.25
2019-05-19T01:53:35.759Z,35.43
2019-05-19T01:56:01.857Z,43.60
2019-05-19T01:58:27.962Z,55.90
2019-05-19T02:00:54.181Z,43.00
2019-05-19T02:03:20.286Z,38.45
2019-05-19T02:05:46.507Z,50.48
2019-05-19T02:08:12.592Z,37.05
2019-05-19T02:10:38.800Z,38.20
2019-05-19T02:13:05.338Z,43.70
2019-05-19T02:15:31.665Z,33.88
2019-05-19T02:17:57.777Z,26.65
2019-05-19T02:20:32.854Z,54.77
2019-05-19T02:22:52.117Z,51.25
2019-05-19T02:25:18.807Z,38.63
2019-05-19T02:27:44.988Z,36.60
2019-05-19T02:30:11.601Z,41.75
2019-05-19T02:32:37.787Z,36.93
2019-05-19T02:35:05.494Z,45.52
2019-05-19T02:37:31.671Z,59.35
2019-05-19T02:39:57.969Z,53.68
2019-05-19T02:42:26.659Z,39.70
2019-05-19T02:44:55.180Z,49.25
2019-05-19T02:47:22.768Z,43.60
2019-05-19T02:49:50.656Z,38.75
2019-05-19T02:52:18.067Z,35.20
2019-05-19T02:54:44.776Z,52.73
2019-05-19T02:57:11.167Z,32.15
2019-05-19T02:59:37.553Z,41.83
2019-05-19T03:02:09.100Z,63.98
2019-05-19T03:04:35.392Z,56.20
2019-05-19T03:07:02.065Z,39.30
2019-05-19T03:09:28.257Z,40.58
2019-05-19T03:11:54.429Z,54.88
2019-05-19T03:14:20.641Z,54.40
2019-05-19T03:16:46.738Z,49.40
2019-05-19T03:19:12.942Z,40.35
2019-05-19T03:21:39.028Z,35.88
2019-05-19T03:24:05.142Z,53.00
2019-05-19T03:26:31.349Z,34.30
2019-05-19T03:28:57.647Z,44.08
2019-05-19T03:31:31.972Z,42.67
2019-05-19T03:33:59.746Z,37.73
2019-05-19T03:36:25.924Z,33.08
2019-05-19T03:38:52.131Z,41.50
2019-05-19T03:41:18.227Z,29.63
2019-05-19T03:43:44.418Z,24.25
2019-05-19T03:46:10.639Z,31.30
2019-05-19T03:48:36.819Z,47.83
2019-05-19T03:51:02.991Z,37.90
2019-05-19T03:53:29.192Z,52.35
2019-05-19T03:55:55.311Z,70.87
2019-05-19T03:58:21.487Z,54.18
2019-05-19T04:00:47.570Z,35.35
2019-05-19T04:03:13.781Z,40.28
2019-05-19T04:05:39.925Z,46.85
2019-05-19T04:08:06.040Z,42.23
2019-05-19T04:10:32.259Z,40.10
2019-05-19T04:12:58.401Z,49.80
2019-05-19T04:15:24.596Z,65.05
2019-05-19T04:17:50.845Z,47.62
2019-05-19T04:20:17.194Z,41.30
2019-05-19T04:22:43.415Z,32.70
2019-05-19T04:25:09.751Z,41.83
2019-05-19T04:27:36.360Z,38.85
2019-05-19T04:30:04.180Z,45.35
2019-05-19T04:32:30.376Z,47.13
2019-05-19T04:34:56.565Z,64.60
2019-05-19T04:37:22.682Z,53.42
2019-05-19T04:39:48.860Z,63.52
2019-05-19T04:42:14.989Z,46.63
2019-05-19T04:44:41.197Z,42.88
2019-05-19T04:47:07.461Z,51.02
2019-05-19T04:49:33.639Z,35.88
2019-05-19T04:52:06.770Z,33.70
2019-05-19T04:54:29.167Z,41.00
2019-05-19T04:56:55.258Z,40.55
2019-05-19T04:59:21.505Z,43.73
2019-05-19T05:01:47.690Z,54.13
2019-05-19T05:04:13.887Z,43.50
2019-05-19T05:06:40.007Z,44.15
2019-05-19T05:09:06.209Z,35.63
2019-05-19T05:11:32.320Z,45.28
2019-05-19T05:13:58.532Z,40.55
2019-05-19T05:16:24.695Z,43.63
2019-05-19T05:18:50.822Z,36.23
2019-05-19T05:21:17.009Z,49.53
2019-05-19T05:23:43.119Z,37.65
2019-05-19T05:26:09.352Z,61.60
2019-05-19T05:28:35.546Z,44.27
2019-05-19T05:31:01.743Z,36.55
2019-05-19T05:33:27.966Z,38.85
2019-05-19T05:35:54.152Z,46.40
2019-05-19T05:38:20.242Z,36.13
2019-05-19T05:40:46.458Z,34.92
2019-05-19T05:43:12.652Z,40.78
2019-05-19T05:45:39.183Z,47.20
2019-05-19T05:48:05.646Z,39.73
2019-05-19T05:50:31.848Z,53.60
2019-05-19T05:52:57.961Z,45.80
2019-05-19T05:55:24.165Z,40.70
2019-05-19T05:57:50.283Z,39.65
2019-05-19T06:00:17.561Z,26.23
2019-05-19T06:02:43.873Z,22.93
2019-05-19T06:05:10.149Z,27.75
2019-05-19T06:07:36.288Z,34.50
2019-05-19T06:10:05.523Z,35.30
2019-05-19T06:12:32.181Z,30.05
2019-05-19T06:14:58.419Z,46.20
2019-05-19T06:17:25.008Z,41.73
2019-05-19T06:19:51.227Z,31.73
2019-05-19T06:22:17.683Z,44.58
2019-05-19T06:24:44.170Z,29.30
2019-05-19T06:27:10.492Z,28.60
2019-05-19T06:29:36.946Z,23.65
2019-05-19T06:32:08.145Z,34.58
2019-05-19T06:34:34.436Z,27.85
2019-05-19T06:37:07.175Z,40.15
2019-05-19T06:39:33.499Z,31.68
2019-05-19T06:42:00.498Z,28.23
2019-05-19T06:44:26.688Z,34.58
2019-05-19T06:46:52.867Z,39.20
2019-05-19T06:49:19.100Z,39.25
2019-05-19T06:51:45.385Z,30.82
2019-05-19T06:54:13.866Z,36.77
2019-05-19T06:56:40.090Z,39.60
2019-05-19T06:59:06.198Z,51.90
2019-05-19T07:01:32.715Z,27.87
2019-05-19T07:04:01.127Z,30.70
2019-05-19T07:06:27.425Z,27.80
2019-05-19T07:08:53.636Z,25.55
2019-05-19T07:11:19.825Z,21.00
2019-05-19T07:13:45.977Z,35.35
2019-05-19T07:16:12.159Z,39.78
2019-05-19T07:18:38.420Z,37.70
2019-05-19T07:21:04.625Z,42.88
2019-05-19T07:23:30.724Z,34.30
2019-05-19T07:25:56.870Z,39.60
2019-05-19T07:28:22.998Z,33.40
2019-05-19T07:30:49.292Z,36.40
2019-05-19T07:33:15.641Z,29.00
2019-05-19T07:35:41.813Z,30.95
2019-05-19T07:38:08.016Z,32.98
2019-05-19T07:40:34.230Z,25.62
2019-05-19T07:43:19.154Z,41.00
2019-05-19T07:45:47.928Z,31.97
2019-05-19T07:48:14.211Z,32.20
2019-05-19T07:50:40.299Z,36.73
2019-05-19T07:53:06.486Z,21.37
2019-05-19T07:55:32.753Z,27.05
2019-05-19T07:57:58.942Z,30.45
2019-05-19T08:00:25.035Z,30.23
2019-05-19T08:02:51.133Z,23.57
2019-05-19T08:05:17.410Z,31.45
2019-05-19T08:07:43.579Z,28.07
2019-05-19T08:10:10.105Z,36.03
2019-05-19T08:12:36.368Z,36.38
2019-05-19T08:15:05.439Z,27.25
2019-05-19T08:17:31.663Z,26.55
2019-05-19T08:19:57.850Z,21.00
2019-05-19T08:22:24.084Z,25.57
2019-05-19T08:24:50.411Z,29.87
2019-05-19T08:27:16.555Z,29.32
2019-05-19T08:29:42.799Z,26.10
2019-05-19T08:32:08.913Z,29.32
2019-05-19T08:34:35.042Z,24.77
2019-05-19T08:37:01.346Z,26.97
2019-05-19T08:39:27.523Z,32.40
2019-05-19T08:41:53.682Z,23.45
2019-05-19T08:44:20.162Z,23.15
2019-05-19T08:46:46.281Z,30.77
2019-05-19T08:49:12.381Z,35.70
2019-05-19T08:51:38.613Z,22.93
2019-05-19T08:54:14.278Z,22.75
2019-05-19T08:56:32.928Z,17.95
2019-05-19T08:58:59.239Z,21.07
2019-05-19T09:01:25.483Z,33.40
2019-05-19T09:03:51.584Z,33.35
2019-05-19T09:06:17.687Z,27.25
2019-05-19T09:08:43.926Z,21.12
2019-05-19T09:11:10.119Z,18.82
2019-05-19T09:13:36.318Z,31.23
2019-05-19T09:16:03.218Z,24.10
2019-05-19T09:18:29.440Z,29.57
2019-05-19T09:20:57.431Z,34.65
2019-05-19T09:23:23.538Z,24.10
2019-05-19T09:25:49.664Z,24.52
2019-05-19T09:28:15.894Z,28.10
2019-05-19T09:30:42.015Z,27.22
2019-05-19T09:33:08.230Z,25.25
2019-05-19T09:35:34.429Z,24.15
2019-05-19T09:38:00.648Z,35.98
2019-05-19T09:40:27.403Z,22.32
2019-05-19T09:42:53.984Z,23.32
2019-05-19T09:45:20.408Z,33.55
2019-05-19T09:47:46.547Z,24.15
2019-05-19T09:50:13.444Z,28.73
2019-05-19T09:52:39.684Z,27.75
2019-05-19T09:55:06.283Z,35.48
2019-05-19T09:57:32.471Z,31.05
2019-05-19T09:59:58.672Z,36.28
2019-05-19T10:02:24.772Z,39.45
2019-05-19T10:04:50.868Z,28.55
2019-05-19T10:07:17.084Z,27.85
2019-05-19T10:09:59.923Z,19.90
2019-05-19T10:12:26.149Z,29.20
2019-05-19T10:14:52.526Z,30.65
2019-05-19T10:17:18.728Z,47.67
2019-05-19T10:19:45.089Z,35.78
2019-05-19T10:22:11.187Z,31.77
2019-05-19T10:24:37.354Z,34.88
2019-05-19T10:27:03.536Z,37.50
2019-05-19T10:29:29.739Z,32.25
2019-05-19T10:31:55.826Z,25.23
2019-05-19T10:34:22.038Z,37.70
2019-05-19T10:36:48.352Z,33.30
2019-05-19T10:39:14.553Z,25.82
2019-05-19T10:41:40.752Z,31.97
2019-05-19T10:44:07.016Z,42.75
2019-05-19T10:46:33.143Z,39.08
2019-05-19T10:48:59.448Z,41.77
2019-05-19T10:51:25.649Z,27.65
2019-05-19T10:53:52.239Z,26.55
2019-05-19T10:56:19.261Z,39.35
2019-05-19T10:58:45.412Z,32.83
2019-05-19T11:01:11.514Z,27.58
2019-05-19T11:03:37.678Z,32.63
2019-05-19T11:06:03.883Z,31.62
2019-05-19T11:08:30.126Z,29.87
2019-05-19T11:10:56.348Z,32.17
2019-05-19T11:13:22.429Z,22.00
2019-05-19T11:15:48.644Z,30.57
2019-05-19T11:18:14.807Z,28.05
2019-05-19T11:20:40.914Z,27.73
2019-05-19T11:23:07.040Z,26.90
2019-05-19T11:25:34.550Z,26.73
2019-05-19T11:28:17.974Z,38.30
2019-05-19T11:30:44.195Z,23.98
2019-05-19T11:33:10.403Z,25.57
2019-05-19T11:35:36.608Z,25.40
2019-05-19T11:38:02.812Z,30.92
2019-05-19T11:40:28.955Z,26.15
2019-05-19T11:42:55.145Z,26.82
2019-05-19T11:45:21.266Z,22.85
2019-05-19T11:47:47.529Z,34.43
2019-05-19T11:50:13.813Z,26.00
2019-05-19T11:52:40.078Z,35.03
2019-05-19T11:55:06.374Z,29.95
2019-05-19T11:57:32.587Z,31.80
2019-05-19T11:59:58.679Z,24.57
2019-05-19T12:02:24.791Z,24.27
2019-05-19T12:04:50.891Z,25.08
2019-05-19T12:07:17.003Z,34.00
2019-05-19T12:09:43.119Z,34.78
2019-05-19T12:12:09.226Z,38.92
2019-05-19T12:14:35.342Z,27.93
2019-05-19T12:17:01.582Z,39.13
2019-05-19T12:19:27.808Z,31.68
2019-05-19T12:21:53.919Z,39.45
2019-05-19T12:24:20.024Z,29.95
2019-05-19T12:26:46.135Z,33.45
2019-05-19T12:29:13.427Z,42.08
2019-05-19T12:31:39.605Z,32.78
2019-05-19T12:34:05.922Z,34.67
2019-05-19T12:36:32.032Z,28.90
2019-05-19T12:38:58.159Z,41.83
2019-05-19T12:41:24.341Z,47.50
2019-05-19T12:43:50.501Z,38.95
2019-05-19T12:46:16.940Z,44.48
2019-05-19T12:48:43.110Z,38.25
2019-05-19T12:51:09.446Z,31.75
2019-05-19T12:53:35.665Z,33.38
2019-05-19T12:56:01.905Z,32.88
2019-05-19T12:58:28.926Z,31.02
2019-05-19T13:00:55.128Z,33.42
2019-05-19T13:03:21.844Z,26.75
2019-05-19T13:05:47.972Z,40.10
2019-05-19T13:08:16.454Z,35.38
2019-05-19T13:10:44.544Z,38.67
2019-05-19T13:13:10.660Z,37.28
2019-05-19T13:15:36.777Z,45.75
2019-05-19T13:18:02.965Z,36.98
2019-05-19T13:20:29.164Z,35.55
2019-05-19T13:22:55.292Z,38.53
2019-05-19T13:25:21.476Z,34.23
2019-05-19T13:27:47.842Z,40.55
2019-05-19T13:30:14.153Z,34.23
2019-05-19T13:32:40.590Z,38.63
2019-05-19T13:35:07.011Z,31.45
2019-05-19T13:37:33.196Z,37.58
2019-05-19T13:39:59.513Z,33.92
2019-05-19T13:42:26.335Z,31.35
2019-05-19T13:44:52.563Z,31.37
2019-05-19T13:47:18.865Z,40.65
2019-05-19T13:49:45.053Z,27.80
2019-05-19T13:52:11.235Z,35.75
2019-05-19T13:54:37.545Z,34.33
2019-05-19T13:57:11.721Z,29.95
2019-05-19T13:59:31.890Z,36.08
2019-05-19T14:01:58.144Z,32.95
2019-05-19T14:04:24.440Z,33.13
2019-05-19T14:06:50.782Z,35.58
2019-05-19T14:09:16.961Z,34.03
2019-05-19T14:11:43.111Z,33.98
2019-05-19T14:14:09.245Z,31.45
2019-05-19T14:16:35.580Z,34.90
2019-05-19T14:19:01.702Z,30.40
2019-05-19T14:21:27.916Z,29.98
2019-05-19T14:23:54.113Z,28.12
2019-05-19T14:26:20.197Z,25.92
2019-05-19T14:28:46.322Z,28.42
2019-05-19T14:31:12.888Z,31.12
2019-05-19T14:33:39.220Z,27.58
2019-05-19T14:36:05.373Z,34.83
2019-05-19T14:38:31.544Z,28.85
2019-05-19T14:40:57.702Z,27.15
2019-05-19T14:43:25.820Z,30.55
2019-05-19T14:45:52.037Z,28.52
2019-05-19T14:48:18.132Z,33.85
2019-05-19T14:50:44.229Z,24.37
2019-05-19T14:53:10.445Z,29.82
2019-05-19T14:55:37.492Z,26.77
2019-05-19T14:58:08.001Z,23.25
2019-05-19T15:00:34.211Z,35.63
2019-05-19T15:03:03.820Z,37.70
2019-05-19T15:05:29.925Z,29.55
2019-05-19T15:07:56.139Z,31.95
2019-05-19T15:10:22.678Z,29.67
2019-05-19T15:12:49.042Z,24.72
2019-05-19T15:15:15.527Z,24.92
2019-05-19T15:17:41.617Z,24.72
2019-05-19T15:20:09.834Z,27.07
2019-05-19T15:23:06.530Z,21.82
2019-05-19T15:25:56.114Z,26.48
2019-05-19T15:28:22.314Z,23.95
2019-05-19T15:30:49.432Z,23.87
2019-05-19T15:33:15.786Z,33.42
2019-05-19T15:35:41.878Z,32.48
2019-05-19T15:38:07.980Z,21.80
2019-05-19T15:40:34.168Z,30.80
2019-05-19T15:43:00.675Z,28.32
2019-05-19T15:45:26.816Z,24.15
2019-05-19T15:47:53.003Z,23.22
2019-05-19T15:50:19.292Z,43.85
2019-05-19T15:52:45.640Z,38.33
2019-05-19T15:55:11.916Z,24.60
2019-05-19T15:57:38.109Z,34.38
2019-05-19T16:00:05.848Z,26.30
2019-05-19T16:02:32.071Z,27.75
2019-05-19T16:04:58.295Z,25.08
2019-05-19T16:07:24.542Z,27.90
2019-05-19T16:09:50.856Z,22.73
2019-05-19T16:12:16.995Z,25.55
2019-05-19T16:14:43.209Z,25.25
2019-05-19T16:17:09.427Z,29.27
2019-05-19T16:19:35.765Z,36.33
2019-05-19T16:22:04.861Z,24.80
2019-05-19T16:24:30.950Z,35.00
2019-05-19T16:26:57.044Z,30.17
2019-05-19T16:29:23.264Z,26.95
2019-05-19T16:31:49.677Z,34.15
2019-05-19T16:34:15.819Z,24.85
2019-05-19T16:36:41.941Z,24.10
2019-05-19T16:39:08.089Z,30.23
2019-05-19T16:41:34.375Z,29.27
2019-05-19T16:44:00.904Z,31.40
2019-05-19T16:46:27.097Z,30.05
2019-05-19T16:48:53.213Z,24.30
2019-05-19T16:51:19.543Z,22.60
2019-05-19T16:53:47.653Z,24.35
2019-05-19T16:56:14.030Z,20.65
2019-05-19T16:58:45.230Z,23.75
2019-05-19T17:01:08.588Z,17.90
2019-05-19T17:03:34.827Z,25.27
2019-05-19T17:06:01.049Z,26.57
2019-05-19T17:08:27.200Z,28.57
2019-05-19T17:10:53.328Z,28.60
2019-05-19T17:13:21.356Z,25.37
2019-05-19T17:15:47.530Z,33.50
2019-05-19T17:18:13.688Z,22.13
2019-05-19T17:20:39.794Z,24.80
2019-05-19T17:23:06.016Z,25.77
2019-05-19T17:25:32.217Z,28.00
2019-05-19T17:27:59.752Z,26.27
2019-05-19T17:30:26.220Z,26.87
2019-05-19T17:32:52.524Z,20.10
2019-05-19T17:35:18.728Z,25.65
2019-05-19T17:37:44.926Z,22.85
2019-05-19T17:40:11.857Z,20.82
2019-05-19T17:42:38.060Z,18.82
2019-05-19T17:45:05.468Z,18.70
2019-05-19T17:47:31.646Z,27.80
2019-05-19T17:49:57.817Z,27.48
2019-05-19T17:52:24.770Z,22.95
2019-05-19T17:54:50.865Z,24.10
2019-05-19T17:57:17.072Z,20.82
2019-05-19T17:59:46.805Z,21.70
2019-05-19T18:02:12.991Z,24.52
2019-05-19T18:04:39.117Z,23.57
2019-05-19T18:07:05.231Z,23.22
2019-05-19T18:09:31.439Z,25.60
2019-05-19T18:11:57.963Z,23.77
2019-05-19T18:14:24.275Z,32.63
2019-05-19T18:16:50.600Z,26.62
2019-05-19T18:19:16.797Z,30.95
2019-05-19T18:21:43.022Z,20.45
2019-05-19T18:24:09.212Z,28.62
2019-05-19T18:26:35.400Z,35.25
2019-05-19T18:29:01.710Z,15.68
2019-05-19T18:31:30.987Z,22.20
2019-05-19T18:33:57.527Z,20.25
2019-05-19T18:36:24.341Z,23.62
2019-05-19T18:38:50.479Z,14.15
2019-05-19T18:41:16.695Z,17.45
2019-05-19T18:43:42.886Z,19.60
2019-05-19T18:46:09.025Z,23.32
2019-05-19T18:48:35.147Z,25.77
2019-05-19T18:51:05.543Z,25.72
2019-05-19T18:53:31.964Z,21.82
2019-05-19T18:55:58.216Z,20.95
2019-05-19T18:58:24.468Z,15.48
2019-05-19T19:00:50.884Z,16.55
2019-05-19T19:03:18.165Z,20.17
2019-05-19T19:05:44.547Z,12.98
2019-05-19T19:08:10.825Z,26.52
2019-05-19T19:10:37.107Z,21.40
2019-05-19T19:13:03.405Z,16.25
2019-05-19T19:15:29.717Z,23.85
2019-05-19T19:17:55.968Z,18.48
2019-05-19T19:20:22.215Z,20.55
2019-05-19T19:22:48.810Z,17.37
2019-05-19T19:25:15.039Z,12.53
2019-05-19T19:27:49.081Z,15.00
2019-05-19T19:30:17.720Z,13.60
2019-05-19T19:32:43.994Z,15.68
2019-05-19T19:35:10.714Z,14.28
2019-05-19T19:37:37.190Z,16.12
2019-05-19T19:40:05.981Z,10.38
2019-05-19T19:42:32.168Z,9.23
2019-05-19T19:44:58.369Z,14.58
2019-05-19T19:47:24.598Z,14.07
2019-05-19T19:49:50.840Z,15.30
2019-05-19T19:52:17.030Z,17.07
2019-05-19T19:54:43.238Z,18.02
2019-05-19T19:57:09.438Z,14.70
2019-05-19T19:59:35.725Z,15.78
2019-05-19T20:02:21.936Z,13.00
2019-05-19T20:04:48.236Z,10.90
2019-05-19T20:07:14.502Z,12.00
2019-05-19T20:09:40.778Z,17.87
2019-05-19T20:12:07.044Z,14.70
2019-05-19T20:14:33.316Z,13.60
2019-05-19T20:16:59.496Z,11.48
2019-05-19T20:19:26.413Z,15.50
2019-05-19T20:21:53.292Z,18.02
2019-05-19T20:24:19.815Z,20.57
2019-05-19T20:26:46.094Z,17.67
2019-05-19T20:29:12.417Z,15.28
2019-05-19T20:31:39.166Z,14.43
2019-05-19T20:34:06.049Z,16.55
2019-05-19T20:36:34.358Z,17.52
2019-05-19T20:39:00.575Z,15.85
2019-05-19T20:41:26.715Z,16.35
2019-05-19T20:43:52.902Z,17.05
2019-05-19T20:46:20.977Z,21.82
2019-05-19T20:48:47.578Z,19.62
2019-05-19T20:51:13.833Z,17.73
2019-05-19T20:53:41.602Z,17.75
2019-05-19T20:56:07.890Z,15.25
2019-05-19T20:58:34.060Z,15.38
2019-05-19T21:01:00.495Z,22.73
2019-05-19T21:03:27.085Z,14.33
2019-05-19T21:05:53.383Z,24.55
2019-05-19T21:08:19.705Z,18.27
2019-05-19T21:10:47.414Z,19.00
2019-05-19T21:17:03.954Z,17.95
2019-05-19T21:19:38.111Z,21.35
2019-05-19T21:22:04.590Z,19.23
2019-05-19T21:24:31.487Z,16.25
2019-05-19T21:26:58.090Z,21.52
2019-05-19T21:29:24.255Z,14.58
2019-05-19T21:31:50.681Z,17.77
2019-05-19T21:34:16.977Z,14.00
2019-05-19T21:36:46.117Z,18.30
2019-05-19T21:39:12.575Z,14.35
2019-05-19T21:41:45.296Z,10.63
2019-05-19T21:44:11.526Z,14.28
2019-05-19T21:46:38.213Z,16.95
2019-05-19T21:49:04.814Z,18.02
2019-05-19T21:51:31.153Z,18.65
2019-05-19T21:53:58.891Z,15.15
2019-05-19T21:56:26.106Z,20.90
2019-05-19T21:58:52.597Z,11.90
2019-05-19T22:01:23.249Z,19.42
2019-05-19T22:03:47.421Z,15.40
2019-05-19T22:06:14.105Z,13.93
2019-05-19T22:08:40.988Z,17.27
2019-05-19T22:11:07.416Z,18.75
2019-05-19T22:16:31.220Z,14.28
2019-05-19T22:18:57.407Z,15.05
2019-05-19T22:21:23.770Z,14.85
2019-05-19T22:23:59.833Z,12.35
2019-05-19T22:26:26.060Z,15.93
2019-05-19T22:28:54.588Z,12.93
2019-05-19T22:31:20.477Z,19.60
2019-05-19T22:33:47.128Z,21.87
2019-05-19T22:36:15.746Z,14.63
2019-05-19T22:38:42.043Z,14.70
2019-05-19T22:41:11.118Z,17.10
2019-05-19T23:04:26.943Z,12.53
2019-05-19T23:14:00.752Z,12.07
2019-05-19T23:16:39.453Z,9.80
2019-05-19T23:19:30.839Z,10.50
2019-05-19T23:21:57.055Z,16.48
2019-05-19T23:24:26.800Z,12.23
2019-05-19T23:33:00.035Z,13.93
2019-05-19T23:35:31.188Z,15.20
2019-05-19T23:44:00.459Z,10.48
2019-05-19T23:46:22.623Z,10.95
2019-05-19T23:48:52.404Z,9.20
2019-05-19T23:51:18.579Z,16.60
2019-05-19T23:53:45.106Z,10.75
2019-05-19T23:56:11.866Z,14.87
2019-05-19T23:58:38.339Z,10.68
